NCAR-RAP Real-Time Weather Data

Output produced by METARs form (17 September 2019  17:20 UTC)
found at http://weather.rap.ucar.edu/surface/
 
KBIL 171653Z 25006KT 10SM BKN070 OVC100 19/10 A2975 RMK AO2 SLP044 VIRGA ALQDS SHRA DSNT S-NE T01940100
KBIL 171553Z 19006KT 10SM SCT085 BKN120 OVC200 18/10 A2974 RMK AO2 SLP041 VIRGA NE-E S-W SHRA DSNT SE-NE T01830100
KBIL 171453Z 24007KT 10SM SCT085 BKN110 OVC200 20/07 A2974 RMK AO2 SLP036 VIRGA NE-E SHRA DSNT W-NE T02000072 53005
KBIL 171353Z 24007KT 10SM BKN090 BKN220 19/07 A2973 RMK AO2 SLP032 VIRGA N-E CB DSNT N SHRA DSNT W-N T01890072
KBIL 171253Z 24008KT 10SM BKN110 BKN220 18/08 A2972 RMK AO2 SLP027 T01830078
KBIL 171153Z 20007KT 10SM FEW120 BKN220 18/08 A2972 RMK AO2 SLP028 T01780078 10222 20167 51009
KBIL 171053Z 31006KT 10SM SCT150 BKN230 19/07 A2971 RMK AO2 SLP018 T01890072
KBIL 170953Z 31005KT 10SM FEW150 19/07 A2972 RMK AO2 SLP022 T01940072
KBIL 170853Z 24011KT 10SM SCT150 19/08 A2969 RMK AO2 SLP011 T01940078 55003
KBIL 170753Z 22008KT 10SM BKN160 20/08 A2968 RMK AO2 SLP008 T02000078
KBIL 170653Z 20006KT 10SM FEW100 SCT180 20/09 A2970 RMK AO2 SLP016 T02000089 403440172
KBIL 170553Z 18005KT 10SM OVC110 23/08 A2970 RMK AO2 RAB21E41 TSB0455E51 SLP019 P0000 60000 T02280078 10311 20217 53003
KBIL 170456Z 34006KT 10SM TS BKN110CB 23/08 A2969 RMK AO2 LTG DSNT NW TSB55 OCNL LTGICCG W-NW TS W-NW MOV NE T02280078
KBIL 170453Z 34007KT 10SM VCTS FEW030 BKN110 23/08 A2968 RMK AO2 LTG DSNT NW TSE53 SLP018 OCNL LTG CB DSNT W-NE FU FEW030 T02280078
KBIL 170353Z 29018G26KT 10SM FEW050 FEW070 SCT110 BKN130 23/08 A2969 RMK AO2 PK WND 30028/0341 LTG DSNT N SLP020 TSB11E48 CB DSNT N P0000 T02280078
KBIL 170311Z COR 25013G22KT 10SM TS FEW090CB BKN120 24/07 A2975 RMK AO2 OCNL LTGIC SW TS SW MOV NE LTG DSNT SW TSB11 T02440067
KBIL 170253Z 20005KT 10SM BKN130 25/06 A2969 RMK AO2 LTG DSNT SW SLP021 CB DSNT SW T02500056 53010
KBIL 170053Z 29021G30KT 10SM BKN140 28/04 A2967 RMK AO2 PK WND 28030/0047 SLP008 SHRA DSNT S W-N T02780044
KBIL 162353Z 26006KT 10SM SCT120 BKN250 30/04 A2966 RMK AO2 SLP004 VIRGA SHRA DSNT S-NW T03000039 10344 20272 55010
KBIL 162253Z 25006KT 10SM SCT120 BKN220 34/M01 A2966 RMK AO2 SLP001 SHRA DSNT SW-W T03391011
KBIL 162153Z 24009KT 10SM FEW120 SCT180 SCT240 34/02 A2968 RMK AO2 SLP007 T03440022